createdAt,value
2018-06-08T00:02:15.578Z,77.70
2018-06-08T00:04:43.886Z,77.90
2018-06-08T00:07:12.254Z,78.30
2018-06-08T00:09:40.542Z,78.50
2018-06-08T00:12:08.863Z,78.50
2018-06-08T00:14:37.203Z,78.40
2018-06-08T00:17:05.729Z,78.70
2018-06-08T00:19:34.049Z,78.90
2018-06-08T00:22:02.369Z,79.40
2018-06-08T00:24:30.732Z,80.10
2018-06-08T00:26:59.061Z,80.40
2018-06-08T00:29:27.375Z,80.00
2018-06-08T00:31:55.848Z,79.80
2018-06-08T00:34:24.225Z,80.10
2018-06-08T00:36:52.565Z,80.30
2018-06-08T00:39:20.947Z,79.80
2018-06-08T00:41:49.307Z,81.30
2018-06-08T00:46:45.697Z,82.20
2018-06-08T00:49:14.129Z,83.10
2018-06-08T00:51:42.425Z,83.60
2018-06-08T00:54:10.764Z,84.00
2018-06-08T00:56:50.475Z,84.00
2018-06-08T00:59:18.785Z,83.70
2018-06-08T01:01:47.115Z,84.30
2018-06-08T01:06:43.511Z,85.00
2018-06-08T01:09:11.825Z,85.30
2018-06-08T01:11:40.191Z,85.50
2018-06-08T01:14:08.514Z,85.40
2018-06-08T01:16:36.857Z,85.60
2018-06-08T01:19:05.240Z,85.30
2018-06-08T01:21:33.568Z,85.20
2018-06-08T01:24:01.924Z,85.70
2018-06-08T01:26:30.256Z,86.30
2018-06-08T01:31:26.688Z,86.10
2018-06-08T01:33:55.039Z,86.30
2018-06-08T01:36:23.413Z,86.60
2018-06-08T01:38:51.753Z,86.50
2018-06-08T01:41:20.097Z,86.80
2018-06-08T01:43:48.455Z,86.60
2018-06-08T01:46:16.781Z,86.70
2018-06-08T01:48:45.142Z,86.30
2018-06-08T01:51:15.189Z,86.50
2018-06-08T01:53:43.614Z,86.50
2018-06-08T01:56:11.953Z,87.00
2018-06-08T01:58:40.287Z,87.10
2018-06-08T02:01:08.615Z,87.50
2018-06-08T02:03:37.153Z,87.30
2018-06-08T02:06:05.483Z,87.60
2018-06-08T02:08:33.809Z,87.90
2018-06-08T02:11:02.121Z,88.00
2018-06-08T02:13:30.474Z,88.20
2018-06-08T02:15:58.963Z,88.80
2018-06-08T02:18:27.306Z,89.60
2018-06-08T02:20:55.617Z,90.00
2018-06-08T02:23:23.984Z,90.10
2018-06-08T02:25:52.501Z,90.30
2018-06-08T02:28:20.836Z,90.80
2018-06-08T02:30:49.111Z,91.00
2018-06-08T02:33:17.463Z,91.10
2018-06-08T02:35:45.813Z,91.00
2018-06-08T02:38:14.193Z,90.80
2018-06-08T02:40:42.520Z,90.70
2018-06-08T02:43:10.852Z,90.70
2018-06-08T02:45:39.224Z,90.60
2018-06-08T02:48:07.584Z,90.40
2018-06-08T02:50:35.903Z,90.30
2018-06-08T02:53:04.246Z,90.30
2018-06-08T02:55:32.559Z,90.40
2018-06-08T02:58:00.906Z,90.30
2018-06-08T03:00:29.186Z,90.30
2018-06-08T03:02:57.584Z,90.20
2018-06-08T03:05:25.955Z,90.30
2018-06-08T03:07:54.320Z,90.30
2018-06-08T03:10:22.642Z,90.40
2018-06-08T03:12:50.972Z,90.50
2018-06-08T03:15:19.296Z,90.50
2018-06-08T03:17:47.676Z,90.40
2018-06-08T03:20:16.002Z,90.60
2018-06-08T03:22:44.333Z,90.70
2018-06-08T03:25:12.702Z,90.60
2018-06-08T03:27:41.024Z,90.50
2018-06-08T03:30:09.396Z,90.40
2018-06-08T03:32:37.697Z,90.40
2018-06-08T03:35:06.865Z,90.60
2018-06-08T03:37:35.195Z,90.70
2018-06-08T03:40:03.514Z,90.60
2018-06-08T03:42:31.808Z,90.60
2018-06-08T03:45:00.190Z,90.50
2018-06-08T03:47:28.537Z,90.60
2018-06-08T03:49:56.900Z,90.40
2018-06-08T03:52:25.218Z,91.10
2018-06-08T03:54:53.529Z,91.40
2018-06-08T03:57:21.834Z,91.40
2018-06-08T03:59:50.128Z,91.30
2018-06-08T04:04:46.530Z,91.30
2018-06-08T04:07:14.898Z,91.90
2018-06-08T04:09:43.259Z,92.00
2018-06-08T04:12:11.628Z,92.20
2018-06-08T04:14:40.006Z,92.40
2018-06-08T04:17:08.339Z,92.60
2018-06-08T04:19:36.659Z,92.60
2018-06-08T04:22:05.045Z,92.60
2018-06-08T04:24:33.410Z,92.50
2018-06-08T04:27:01.759Z,92.10
2018-06-08T04:29:30.077Z,91.90
2018-06-08T04:31:58.391Z,92.00
2018-06-08T04:34:26.705Z,91.90
2018-06-08T04:36:55.073Z,91.80
2018-06-08T04:39:23.401Z,91.80
2018-06-08T04:41:51.792Z,91.80
2018-06-08T04:44:20.115Z,91.80
2018-06-08T04:46:48.426Z,91.90
2018-06-08T04:49:16.768Z,91.80
2018-06-08T04:51:45.215Z,91.70
2018-06-08T04:54:13.939Z,91.60
2018-06-08T04:56:42.274Z,91.60
2018-06-08T04:59:10.628Z,91.80
2018-06-08T05:01:38.988Z,91.40
2018-06-08T05:04:07.308Z,91.30
2018-06-08T05:06:35.622Z,91.30
2018-06-08T05:09:04.953Z,91.30
2018-06-08T05:11:33.249Z,91.20
2018-06-08T05:14:01.591Z,91.10
2018-06-08T05:16:29.948Z,91.10
2018-06-08T05:18:58.307Z,91.20
2018-06-08T05:21:26.608Z,91.20
2018-06-08T05:23:54.964Z,91.10
2018-06-08T05:26:23.284Z,91.00
2018-06-08T05:28:51.589Z,91.00
2018-06-08T05:31:22.377Z,91.00
2018-06-08T05:33:50.678Z,90.70
2018-06-08T05:36:19.118Z,90.60
2018-06-08T05:43:43.591Z,90.20
2018-06-08T05:46:11.930Z,90.10
2018-06-08T05:48:40.244Z,90.00
2018-06-08T05:51:08.567Z,90.10
2018-06-08T05:53:36.876Z,89.70
2018-06-08T05:58:33.412Z,90.00
2018-06-08T06:01:01.732Z,90.00
2018-06-08T06:03:30.083Z,90.00
2018-06-08T06:05:58.386Z,89.80
2018-06-08T06:08:26.712Z,89.20
2018-06-08T06:10:55.059Z,89.70
2018-06-08T06:13:23.365Z,89.30
2018-06-08T06:15:51.703Z,89.90
2018-06-08T06:18:20.018Z,89.40
2018-06-08T06:20:48.378Z,89.00
2018-06-08T06:23:16.712Z,89.20
2018-06-08T06:25:45.070Z,88.60
2018-06-08T06:28:13.389Z,87.80
2018-06-08T06:30:41.745Z,86.50
2018-06-08T06:33:10.068Z,86.90
2018-06-08T06:35:38.441Z,86.30
2018-06-08T06:38:06.741Z,86.20
2018-06-08T06:40:35.149Z,87.00
2018-06-08T06:43:03.553Z,87.00
2018-06-08T06:45:31.881Z,87.80
2018-06-08T06:48:00.218Z,87.50
2018-06-08T06:50:28.555Z,87.30
2018-06-08T06:52:56.859Z,86.30
2018-06-08T06:55:25.226Z,86.20
2018-06-08T06:57:53.540Z,86.80
2018-06-08T07:00:21.855Z,86.20
2018-06-08T07:02:50.231Z,85.70
2018-06-08T07:05:18.569Z,85.30
2018-06-08T07:07:46.915Z,85.40
2018-06-08T07:10:15.299Z,85.00
2018-06-08T07:12:43.656Z,85.30
2018-06-08T07:15:12.047Z,84.60
2018-06-08T07:17:40.460Z,85.60
2018-06-08T07:20:08.811Z,86.20
2018-06-08T07:22:37.129Z,86.00
2018-06-08T07:25:05.472Z,84.50
2018-06-08T07:27:33.853Z,85.50
2018-06-08T07:30:02.210Z,85.30
2018-06-08T07:32:30.537Z,84.80
2018-06-08T07:34:58.873Z,83.70
2018-06-08T07:37:27.229Z,82.70
2018-06-08T07:39:55.595Z,83.00
2018-06-08T07:42:23.911Z,82.60
2018-06-08T07:44:52.315Z,81.60
2018-06-08T07:47:20.656Z,81.90
2018-06-08T07:49:48.977Z,81.80
2018-06-08T07:52:17.329Z,82.40
2018-06-08T07:54:45.644Z,83.70
2018-06-08T07:57:13.995Z,82.70
2018-06-08T07:59:42.384Z,80.10
2018-06-08T08:02:10.767Z,81.40
2018-06-08T08:04:39.107Z,80.20
2018-06-08T08:07:07.457Z,79.30
2018-06-08T08:09:35.758Z,79.70
2018-06-08T08:12:04.147Z,79.30
2018-06-08T08:14:32.490Z,78.20
2018-06-08T08:17:00.868Z,78.70
2018-06-08T08:19:29.195Z,79.70
2018-06-08T08:21:57.623Z,77.60
2018-06-08T08:24:25.936Z,76.50
2018-06-08T08:26:54.286Z,78.10
2018-06-08T08:29:22.813Z,77.40
2018-06-08T08:31:51.177Z,77.50
2018-06-08T08:34:19.562Z,76.30
2018-06-08T08:36:47.877Z,75.70
2018-06-08T08:39:16.267Z,76.00
2018-06-08T08:44:12.755Z,76.30
2018-06-08T08:46:41.097Z,74.50
2018-06-08T08:49:09.619Z,74.20
2018-06-08T08:51:38.001Z,74.20
2018-06-08T08:54:06.361Z,72.20
2018-06-08T08:56:34.700Z,72.00
2018-06-08T08:59:03.019Z,72.20
2018-06-08T09:01:31.363Z,70.80
2018-06-08T09:03:59.707Z,70.70
2018-06-08T09:06:28.039Z,72.60
2018-06-08T09:08:56.739Z,72.40
2018-06-08T09:11:25.077Z,71.90
2018-06-08T09:13:53.423Z,72.90
2018-06-08T09:16:21.811Z,72.40
2018-06-08T09:18:50.184Z,69.90
2018-06-08T09:21:18.545Z,69.40
2018-06-08T09:23:46.912Z,69.90
2018-06-08T09:26:15.322Z,70.40
2018-06-08T09:28:43.647Z,71.40
2018-06-08T09:31:11.983Z,68.60
2018-06-08T09:33:40.352Z,70.10
2018-06-08T09:36:08.659Z,68.90
2018-06-08T09:38:36.991Z,68.60
2018-06-08T09:41:05.349Z,67.90
2018-06-08T09:43:33.673Z,67.90
2018-06-08T09:48:30.252Z,66.80
2018-06-08T09:50:58.591Z,66.20
2018-06-08T09:53:26.970Z,66.90
2018-06-08T09:55:55.366Z,67.80
2018-06-08T09:58:23.695Z,68.20
2018-06-08T10:00:52.053Z,69.10
2018-06-08T10:03:20.410Z,68.70
2018-06-08T10:05:48.755Z,67.80
2018-06-08T10:08:17.061Z,68.70
2018-06-08T10:10:45.425Z,67.90
2018-06-08T10:13:13.819Z,65.20
2018-06-08T10:15:42.170Z,67.60
2018-06-08T10:18:10.544Z,67.40
2018-06-08T10:20:38.879Z,68.20
2018-06-08T10:23:07.277Z,67.50
2018-06-08T10:25:35.683Z,66.00
2018-06-08T10:28:03.991Z,64.60
2018-06-08T10:30:32.337Z,65.00
2018-06-08T10:33:00.663Z,64.10
2018-06-08T10:35:29.032Z,66.90
2018-06-08T10:37:57.418Z,66.00
2018-06-08T10:40:25.725Z,65.20
2018-06-08T10:42:54.089Z,66.70
2018-06-08T10:45:22.431Z,65.70
2018-06-08T10:47:50.768Z,69.80
2018-06-08T10:50:19.085Z,67.10
2018-06-08T10:52:47.425Z,66.70
2018-06-08T10:55:15.763Z,65.50
2018-06-08T10:57:44.086Z,65.30
2018-06-08T11:00:12.455Z,65.40
2018-06-08T11:02:40.766Z,63.70
2018-06-08T11:05:09.109Z,65.20
2018-06-08T11:07:37.493Z,63.50
2018-06-08T11:12:33.963Z,67.00
2018-06-08T11:15:02.309Z,66.00
2018-06-08T11:17:30.684Z,64.60
2018-06-08T11:19:59.005Z,65.70
2018-06-08T11:22:27.369Z,62.50
2018-06-08T11:24:55.693Z,63.80
2018-06-08T11:27:24.031Z,64.80
2018-06-08T11:29:52.433Z,65.40
2018-06-08T11:32:21.001Z,65.90
2018-06-08T11:34:49.363Z,67.70
2018-06-08T11:39:45.787Z,65.20
2018-06-08T11:42:14.191Z,66.00
2018-06-08T11:47:10.626Z,66.40
2018-06-08T11:49:38.953Z,66.30
2018-06-08T11:52:07.310Z,64.00
2018-06-08T11:54:35.697Z,65.00
2018-06-08T11:57:04.061Z,65.70
2018-06-08T11:59:32.427Z,62.80
2018-06-08T12:02:00.805Z,63.40
2018-06-08T12:04:29.179Z,63.50
2018-06-08T12:06:57.523Z,63.20
2018-06-08T12:09:25.853Z,61.00
2018-06-08T12:11:54.167Z,59.90
2018-06-08T12:14:22.527Z,62.00
2018-06-08T12:16:50.866Z,61.00
2018-06-08T12:19:19.233Z,61.20
2018-06-08T12:21:47.539Z,60.10
2018-06-08T12:24:15.917Z,59.80
2018-06-08T12:26:44.258Z,59.10
2018-06-08T12:29:12.639Z,59.10
2018-06-08T12:31:41.005Z,57.80
2018-06-08T12:34:09.379Z,56.60
2018-06-08T12:36:37.809Z,57.40
2018-06-08T12:39:07.487Z,55.40
2018-06-08T12:41:36.280Z,56.00
2018-06-08T12:44:04.619Z,56.40
2018-06-08T12:46:33.046Z,55.90
2018-06-08T12:49:01.451Z,58.20
2018-06-08T12:51:29.759Z,57.00
2018-06-08T12:53:58.113Z,56.00
2018-06-08T12:56:26.533Z,55.60
2018-06-08T12:58:54.881Z,56.00
2018-06-08T13:01:23.245Z,55.50
2018-06-08T13:03:51.558Z,55.50
2018-06-08T13:06:19.942Z,56.00
2018-06-08T13:08:48.287Z,57.20
2018-06-08T13:11:16.655Z,54.10
2018-06-08T13:13:45.415Z,53.90
2018-06-08T13:16:13.914Z,53.40
2018-06-08T13:18:42.292Z,53.90
2018-06-08T13:21:10.665Z,53.60
2018-06-08T13:23:38.988Z,52.10
2018-06-08T13:26:07.327Z,52.20
2018-06-08T13:28:35.669Z,52.60
2018-06-08T13:31:04.021Z,51.80
2018-06-08T13:33:32.451Z,54.00
2018-06-08T13:36:00.777Z,54.00
2018-06-08T13:38:29.110Z,52.30
2018-06-08T13:43:25.575Z,52.30
2018-06-08T13:45:53.901Z,52.90
2018-06-08T13:50:50.499Z,52.80
2018-06-08T13:53:18.847Z,53.70
2018-06-08T13:55:47.210Z,54.10
2018-06-08T13:58:15.669Z,53.80
2018-06-08T14:00:44.081Z,54.50
2018-06-08T14:03:12.465Z,53.50
2018-06-08T14:08:09.032Z,54.40
2018-06-08T14:10:37.439Z,54.00
2018-06-08T14:13:05.786Z,53.80
2018-06-08T14:15:34.120Z,53.60
2018-06-08T14:18:02.491Z,53.90
2018-06-08T14:20:30.882Z,54.00
2018-06-08T14:22:59.266Z,54.40
2018-06-08T14:25:27.670Z,54.10
2018-06-08T14:27:56.054Z,55.00
2018-06-08T14:30:24.438Z,53.40
2018-06-08T14:32:52.813Z,54.00
2018-06-08T14:35:21.159Z,53.40
2018-06-08T14:37:49.562Z,53.40
2018-06-08T14:40:17.943Z,54.40
2018-06-08T14:42:46.294Z,54.40
2018-06-08T14:45:14.684Z,54.70
2018-06-08T14:47:43.129Z,54.90
2018-06-08T14:50:11.435Z,54.60
2018-06-08T14:52:39.782Z,55.10
2018-06-08T14:55:08.190Z,53.50
2018-06-08T14:57:36.596Z,53.80
2018-06-08T15:00:05.562Z,54.00
2018-06-08T15:02:33.906Z,53.90
2018-06-08T15:05:02.266Z,53.70
2018-06-08T15:07:31.079Z,53.20
2018-06-08T15:09:59.393Z,54.50
2018-06-08T15:14:55.815Z,55.40
2018-06-08T15:17:24.125Z,54.90
2018-06-08T15:19:52.453Z,55.70
2018-06-08T15:22:20.737Z,55.00
2018-06-08T15:24:49.144Z,55.60
2018-06-08T15:27:17.589Z,56.50
2018-06-08T15:29:45.916Z,57.10
2018-06-08T15:32:14.264Z,57.40
2018-06-08T15:34:42.631Z,57.40
2018-06-08T15:37:11.014Z,57.80
2018-06-08T15:39:39.385Z,58.40
2018-06-08T15:42:07.725Z,59.00
2018-06-08T15:44:36.084Z,59.50
2018-06-08T15:52:00.574Z,61.60
2018-06-08T15:54:28.985Z,61.10
2018-06-08T15:56:57.373Z,61.40
2018-06-08T15:59:25.687Z,61.50
2018-06-08T16:01:54.093Z,61.80
2018-06-08T16:04:22.444Z,62.00
2018-06-08T16:06:50.777Z,61.90
2018-06-08T16:09:19.123Z,62.60
2018-06-08T16:11:48.353Z,62.40
2018-06-08T16:16:44.724Z,60.70
2018-06-08T16:19:13.093Z,60.80
2018-06-08T16:21:41.433Z,60.80
2018-06-08T16:24:09.774Z,61.40
2018-06-08T16:26:38.105Z,59.70
2018-06-08T16:29:06.474Z,59.40
2018-06-08T16:34:02.900Z,58.90
2018-06-08T16:36:31.209Z,58.40
2018-06-08T16:38:59.523Z,58.00
2018-06-08T16:41:27.839Z,58.10
2018-06-08T16:43:56.228Z,57.10
2018-06-08T16:46:24.563Z,57.30
2018-06-08T16:48:52.853Z,57.50
2018-06-08T16:51:21.250Z,56.90
2018-06-08T16:53:49.594Z,57.70
2018-06-08T16:56:17.909Z,57.80
2018-06-08T16:58:46.293Z,57.40
2018-06-08T17:01:14.684Z,58.00
2018-06-08T17:06:11.134Z,58.10
2018-06-08T17:08:39.477Z,59.00
2018-06-08T17:11:07.819Z,59.60
2018-06-08T17:13:36.142Z,59.50
2018-06-08T17:16:04.505Z,59.60
2018-06-08T17:18:32.870Z,60.80
2018-06-08T17:21:01.180Z,61.20
2018-06-08T17:23:29.544Z,60.00
2018-06-08T17:25:57.922Z,59.70
2018-06-08T17:28:26.305Z,60.10
2018-06-08T17:30:54.704Z,59.30
2018-06-08T17:33:23.123Z,59.40
2018-06-08T17:35:51.559Z,59.70
2018-06-08T17:38:19.914Z,59.30
2018-06-08T17:40:48.375Z,60.00
2018-06-08T17:43:16.791Z,60.00
2018-06-08T17:48:13.290Z,59.80
2018-06-08T17:50:41.619Z,60.10
2018-06-08T17:55:38.017Z,60.30
2018-06-08T17:58:06.364Z,60.10
2018-06-08T18:00:34.730Z,60.20
2018-06-08T18:03:03.106Z,60.60
2018-06-08T18:05:31.522Z,60.70
2018-06-08T18:07:59.835Z,61.40
2018-06-08T18:10:28.219Z,61.40
2018-06-08T18:12:56.581Z,61.70
2018-06-08T18:15:24.962Z,61.70
2018-06-08T18:17:53.388Z,62.40
2018-06-08T18:20:21.731Z,62.50
2018-06-08T18:22:50.079Z,63.10
2018-06-08T18:25:18.431Z,63.40
2018-06-08T18:27:46.813Z,64.20
2018-06-08T18:30:15.325Z,65.00
2018-06-08T18:32:43.685Z,65.60
2018-06-08T18:35:12.015Z,65.90
2018-06-08T18:37:40.335Z,66.20
2018-06-08T18:40:08.709Z,66.30
2018-06-08T18:42:37.080Z,66.80
2018-06-08T18:45:05.414Z,66.50
2018-06-08T18:47:33.843Z,67.00
2018-06-08T18:50:02.189Z,67.00
2018-06-08T18:52:30.563Z,67.00
2018-06-08T18:54:59.179Z,67.10
2018-06-08T18:57:27.537Z,67.50
2018-06-08T19:02:23.935Z,67.60
2018-06-08T19:04:52.278Z,67.80
2018-06-08T19:07:20.600Z,68.60
2018-06-08T19:09:48.912Z,68.50
2018-06-08T19:12:17.256Z,68.50
2018-06-08T19:14:45.604Z,68.70
2018-06-08T19:17:13.927Z,68.80
2018-06-08T19:19:42.277Z,68.60
2018-06-08T19:22:10.581Z,69.10
2018-06-08T19:24:38.924Z,69.20
2018-06-08T19:27:07.279Z,69.00
2018-06-08T19:29:35.592Z,68.80
2018-06-08T19:32:04.054Z,69.60
2018-06-08T19:34:32.347Z,69.70
2018-06-08T19:37:00.723Z,69.90
2018-06-08T19:39:29.094Z,71.00
2018-06-08T19:41:57.468Z,70.50
2018-06-08T19:44:25.834Z,70.80
2018-06-08T19:46:54.164Z,71.00
2018-06-08T19:49:22.497Z,71.40
2018-06-08T19:51:50.818Z,72.20
2018-06-08T19:54:19.152Z,72.40
2018-06-08T19:56:48.089Z,73.00
2018-06-08T19:59:17.069Z,73.70
2018-06-08T20:01:45.936Z,74.70
2018-06-08T20:04:14.585Z,75.70
2018-06-08T20:06:43.645Z,76.70
2018-06-08T20:09:12.703Z,77.00
2018-06-08T20:11:42.167Z,77.40
2018-06-08T20:14:11.410Z,77.80
2018-06-08T20:16:40.375Z,79.20
2018-06-08T20:19:09.142Z,78.90
2018-06-08T20:21:38.185Z,79.40
2018-06-08T20:24:07.248Z,80.00
2018-06-08T20:26:36.166Z,80.40
2018-06-08T20:29:04.888Z,81.00
2018-06-08T20:31:33.670Z,81.10
2018-06-08T20:36:31.060Z,81.70
2018-06-08T20:38:59.945Z,82.70
2018-06-08T20:41:28.785Z,83.40
2018-06-08T20:43:57.954Z,83.90
2018-06-08T20:46:27.101Z,84.40
2018-06-08T20:48:55.762Z,84.80
2018-06-08T20:51:24.708Z,85.70
2018-06-08T20:53:53.613Z,86.00
2018-06-08T20:56:22.474Z,86.50
2018-06-08T20:58:51.935Z,86.40
2018-06-08T21:01:20.656Z,86.90
2018-06-08T21:03:49.136Z,87.40
2018-06-08T21:06:17.487Z,87.80
2018-06-08T21:08:45.860Z,88.00
2018-06-08T21:11:14.177Z,87.80
2018-06-08T21:13:42.930Z,88.00
2018-06-08T21:16:11.662Z,88.00
2018-06-08T21:18:40.165Z,88.00
2018-06-08T21:21:08.589Z,87.80
2018-06-08T21:23:36.928Z,88.10
2018-06-08T21:26:05.339Z,87.70
2018-06-08T21:28:33.699Z,87.50
2018-06-08T21:31:02.029Z,87.50
2018-06-08T21:33:30.500Z,87.70
2018-06-08T21:35:58.813Z,87.40
2018-06-08T21:38:27.699Z,87.10
2018-06-08T21:40:56.034Z,87.40
2018-06-08T21:43:24.391Z,87.30
2018-06-08T21:45:52.744Z,87.40
2018-06-08T21:48:21.110Z,87.40
2018-06-08T21:50:49.458Z,87.20
2018-06-08T21:53:17.840Z,87.90
2018-06-08T21:55:46.152Z,88.20
2018-06-08T21:58:14.492Z,87.90
2018-06-08T22:00:42.828Z,88.20
2018-06-08T22:03:11.198Z,88.80
2018-06-08T22:05:39.528Z,89.20
2018-06-08T22:08:07.870Z,89.60
2018-06-08T22:10:36.193Z,90.10
2018-06-08T22:13:04.541Z,90.10
2018-06-08T22:15:32.902Z,90.20
2018-06-08T22:18:01.238Z,90.00
2018-06-08T22:20:29.565Z,89.20
2018-06-08T22:22:57.942Z,88.00
2018-06-08T22:25:26.270Z,87.40
2018-06-08T22:27:54.600Z,86.40
2018-06-08T22:30:22.920Z,86.40
2018-06-08T22:32:52.596Z,86.20
2018-06-08T22:35:20.910Z,86.40
2018-06-08T22:37:49.249Z,86.20
2018-06-08T22:40:17.604Z,86.70
2018-06-08T22:42:45.979Z,86.50
2018-06-08T22:45:14.418Z,86.90
2018-06-08T22:50:10.858Z,87.50
2018-06-08T22:52:39.535Z,87.80
2018-06-08T22:55:07.835Z,88.40
2018-06-08T22:57:36.184Z,88.90
2018-06-08T23:00:05.208Z,88.90
2018-06-08T23:02:33.622Z,89.50
2018-06-08T23:05:01.931Z,89.60
2018-06-08T23:07:30.339Z,90.00
2018-06-08T23:12:26.818Z,90.00
2018-06-08T23:14:55.171Z,90.30
2018-06-08T23:17:23.468Z,90.30
2018-06-08T23:19:51.836Z,90.40
2018-06-08T23:22:20.194Z,90.70
2018-06-08T23:24:48.546Z,90.70
2018-06-08T23:27:16.925Z,90.70
2018-06-08T23:29:45.300Z,90.70
2018-06-08T23:32:13.657Z,91.00
2018-06-08T23:34:41.966Z,90.90
2018-06-08T23:37:10.330Z,90.70
2018-06-08T23:39:38.680Z,91.10
2018-06-08T23:42:07.008Z,91.00
2018-06-08T23:44:35.341Z,91.40
2018-06-08T23:47:03.847Z,91.40
2018-06-08T23:49:32.233Z,91.60
2018-06-08T23:52:00.562Z,91.90
2018-06-08T23:54:28.961Z,92.10
2018-06-08T23:56:57.326Z,92.40
2018-06-08T23:59:25.662Z,92.60
